Time;durP1;ratioP1;P1;durP2;ratioP2;P2;SDS_P1;SDS_P2;PMS_P1;PMS_P2;Temp;Humidity;BMP_temperature;BMP_pressure;BME280_temperature;BME280_humidity;BME280_pressure;Samples;Min_cycle;Max_cycle;Signal;HPM_P1;HPM_P2
2022/06/21 00:01:31;;;;;;;8.20;6.20;;;;;;;16.41;70.44;96674.29;109956;1248;68463;-74
2022/06/21 00:04:01;;;;;;;7.80;7.00;;;;;;;16.36;72.88;96677.75;110243;1247;59698;-75
2022/06/21 00:06:31;;;;;;;8.40;7.20;;;;;;;16.33;73.54;96676.73;110230;1247;59738;-76
2022/06/21 00:09:00;;;;;;;7.50;6.60;;;;;;;16.28;73.94;96682.44;110111;1247;71514;-78
2022/06/21 00:11:33;;;;;;;7.40;6.70;;;;;;;16.26;73.17;96677.61;110161;1247;67824;-76
2022/06/21 00:14:03;;;;;;;8.40;7.20;;;;;;;16.22;74.32;96674.36;110171;1247;68617;-75
2022/06/21 00:16:33;;;;;;;8.70;6.80;;;;;;;16.19;74.21;96670.14;110201;1247;59687;-72
2022/06/21 00:19:04;;;;;;;7.40;6.60;;;;;;;16.16;74.69;96669.41;110191;1247;59744;-73
2022/06/21 00:21:37;;;;;;;8.10;6.70;;;;;;;16.13;74.98;96673.02;110226;1247;69746;-76
2022/06/21 00:24:07;;;;;;;9.50;7.30;;;;;;;16.10;74.20;96671.61;110208;1247;67472;-75
2022/06/21 00:26:36;;;;;;;7.10;6.40;;;;;;;16.05;75.60;96670.75;110136;1247;69541;-74
2022/06/21 00:29:06;;;;;;;8.40;6.90;;;;;;;16.02;75.38;96668.58;110174;1247;60160;-74
2022/06/21 00:31:37;;;;;;;;;;;;;;;15.99;74.12;96668.73;110214;1247;59672;-76
2022/06/21 00:34:17;;;;;;;6.00;5.00;;;;;;;15.95;74.03;96661.98;110172;1247;71538;-77
2022/06/21 00:36:48;;;;;;;9.10;7.30;;;;;;;15.92;74.67;96662.47;109889;1250;67982;-75
2022/06/21 00:39:20;;;;;;;5.90;5.30;;;;;;;15.86;74.09;96658.41;109978;1250;68466;-76
2022/06/21 00:41:56;;;;;;;7.60;6.80;;;;;;;15.78;74.74;96651.64;110232;1247;59758;-75
2022/06/21 00:44:49;;;;;;;6.30;5.50;;;;;;;15.71;75.87;96649.95;110006;1247;59722;-74
2022/06/21 00:51:18;;;;;;;7.60;6.80;;;;;;;15.60;76.77;96663.04;110176;1247;68599;-78
2022/06/21 00:53:58;;;;;;;9.00;8.10;;;;;;;15.56;76.67;96667.80;110272;1250;69464;-75
2022/06/21 00:56:43;;;;;;;8.30;7.40;;;;;;;15.52;76.73;96664.04;110244;1247;59680;-77
2022/06/21 00:59:31;;;;;;;9.30;7.30;;;;;;;15.51;77.76;96665.30;110146;1247;59586;-77
2022/06/21 01:02:27;;;;;;;8.10;7.20;;;;;;;15.50;77.39;96661.10;110210;1247;71434;-75
2022/06/21 01:04:59;;;;;;;6.90;6.20;;;;;;;15.49;77.02;96661.19;110168;1248;67844;-72
2022/06/21 01:07:31;;;;;;;8.90;6.60;;;;;;;15.46;77.26;96657.76;109942;1248;68804;-73
2022/06/21 01:10:07;;;;;;;7.90;6.70;;;;;;;15.45;77.39;96655.82;110196;1247;59693;-75
2022/06/21 01:12:52;;;;;;;8.10;7.30;;;;;;;15.41;77.27;96651.98;110040;1247;59778;-76
2022/06/21 01:15:27;;;;;;;7.30;6.50;;;;;;;15.38;77.02;96648.29;110161;1247;70748;-75
2022/06/21 01:18:03;;;;;;;8.90;7.50;;;;;;;15.35;76.79;96643.11;110179;1248;68556;-74
2022/06/21 01:24:51;;;;;;;8.90;7.70;;;;;;;15.27;78.22;96644.63;110017;1250;59711;-75
2022/06/21 01:27:22;;;;;;;7.80;6.80;;;;;;;15.24;78.00;96644.45;109889;1249;59724;-78
2022/06/21 01:29:53;;;;;;;7.60;6.60;;;;;;;15.24;77.68;96640.73;110180;1247;71561;-76
2022/06/21 01:32:24;;;;;;;8.30;6.80;;;;;;;15.22;74.89;96638.13;109988;1247;68561;-74
2022/06/21 01:34:56;;;;;;;7.20;6.30;;;;;;;15.19;74.86;96633.73;110184;1247;69381;-74
2022/06/21 01:37:30;;;;;;;7.90;6.80;;;;;;;15.14;75.50;96634.05;110203;1247;59678;-71
2022/06/21 01:40:25;;;;;;;6.50;5.90;;;;;;;15.07;78.18;96637.97;110029;1247;59691;-75
2022/06/21 01:43:04;;;;;;;9.00;6.20;;;;;;;15.02;77.83;96640.39;110317;1248;71517;-72
2022/06/21 01:45:45;;;;;;;8.20;7.40;;;;;;;14.98;77.86;96640.83;110203;1250;68599;-75
2022/06/21 01:48:39;;;;;;;8.50;6.70;;;;;;;14.93;79.25;96643.11;109979;1250;68719;-68
2022/06/21 01:51:15;;;;;;;7.80;7.00;;;;;;;14.88;79.75;96641.83;110194;1247;59757;-75
2022/06/21 01:53:46;;;;;;;8.10;6.40;;;;;;;14.85;79.74;96643.95;110163;1247;59710;-76
2022/06/21 01:56:26;;;;;;;6.30;5.60;;;;;;;14.84;77.36;96652.82;109891;1249;71356;-79
2022/06/21 01:59:23;;;;;;;8.10;6.30;;;;;;;14.84;78.70;96653.69;110199;1247;67728;-76
2022/06/21 02:02:03;;;;;;;5.90;5.20;;;;;;;14.83;77.11;96644.69;109971;1248;68559;-72
2022/06/21 02:04:43;;;;;;;7.60;6.60;;;;;;;14.82;78.56;96640.58;109970;1248;59718;-75
2022/06/21 02:07:19;;;;;;;8.90;7.40;;;;;;;14.81;80.86;96631.90;110233;1247;59693;-76
2022/06/21 02:10:14;;;;;;;8.70;6.60;;;;;;;14.81;80.38;96624.53;110026;1250;71528;-77
2022/06/21 02:12:55;;;;;;;7.60;6.40;;;;;;;14.82;79.83;96621.11;110124;1248;68488;-76
2022/06/21 02:15:37;;;;;;;11.00;7.60;;;;;;;14.84;80.63;96624.88;109968;1250;69445;-74
2022/06/21 02:18:14;;;;;;;7.40;6.70;;;;;;;14.86;81.54;96633.46;110178;1247;60050;-75
2022/06/21 02:21:08;;;;;;;7.20;6.20;;;;;;;14.88;81.19;96635.38;110169;1249;59671;-76
2022/06/21 02:23:40;;;;;;;7.20;6.40;;;;;;;14.87;78.21;96629.35;110159;1250;71606;-79
2022/06/21 02:26:12;;;;;;;8.20;6.80;;;;;;;14.87;76.90;96621.65;110143;1250;67650;-76
2022/06/21 02:28:46;;;;;;;8.80;5.50;;;;;;;14.86;75.71;96619.30;110168;1249;69222;-78
2022/06/21 02:31:15;;;;;;;6.70;6.10;;;;;;;14.84;75.54;96617.54;110181;1249;60111;-78
2022/06/21 02:33:51;;;;;;;9.40;7.50;;;;;;;14.84;78.35;96616.02;110364;1247;59752;-75
2022/06/21 02:36:27;;;;;;;8.20;6.90;;;;;;;14.84;80.55;96620.93;110174;1247;70611;-72
2022/06/21 02:39:01;;;;;;;7.60;6.80;;;;;;;14.84;81.19;96623.36;110142;1247;68775;-78
2022/06/21 02:41:38;;;;;;;7.60;6.80;;;;;;;14.84;80.38;96616.02;110176;1247;69457;-77
2022/06/21 02:44:18;;;;;;;6.70;6.00;;;;;;;14.84;78.09;96611.38;110158;1249;59757;-76
2022/06/21 02:46:54;;;;;;;7.20;5.80;;;;;;;14.84;76.72;96606.30;110136;1249;59689;-76
2022/06/21 02:49:31;;;;;;;7.30;6.10;;;;;;;14.84;77.04;96609.71;109962;1250;71376;-76
2022/06/21 02:52:23;;;;;;;9.20;6.60;;;;;;;14.84;80.68;96607.88;110133;1247;68390;-77
2022/06/21 02:55:21;;;;;;;9.00;7.50;;;;;;;14.85;78.64;96610.13;110018;1250;69400;-76
2022/06/21 02:58:01;;;;;;;8.30;7.30;;;;;;;14.84;80.81;96607.73;110141;1248;59748;-77
2022/06/21 03:00:32;;;;;;;6.70;5.70;;;;;;;14.81;79.84;96607.83;110063;1250;59715;-77
2022/06/21 03:03:02;;;;;;;;;;;;;;;14.82;76.88;96598.48;110034;1248;70838;-77
2022/06/21 03:05:33;;;;;;;;;;;;;;;14.83;77.10;96595.23;109972;1250;67822;-74
2022/06/21 03:08:06;;;;;;;7.40;6.70;;;;;;;14.83;79.08;96592.73;110165;1247;68626;-75
2022/06/21 03:10:40;;;;;;;7.50;6.30;;;;;;;14.86;81.58;96595.77;110024;1250;59755;-75
2022/06/21 03:13:17;;;;;;;8.10;7.30;;;;;;;14.89;81.66;96596.85;109872;1250;59708;-78
2022/06/21 03:16:16;;;;;;;6.30;5.20;;;;;;;14.92;81.34;96588.09;110175;1247;71509;-77
2022/06/21 03:18:51;;;;;;;6.60;5.90;;;;;;;14.98;79.58;96588.75;110210;1247;68585;-76
2022/06/21 03:21:31;;;;;;;6.80;5.70;;;;;;;15.03;80.89;96589.06;110196;1247;69416;-77
2022/06/21 03:24:06;;;;;;;8.10;6.90;;;;;;;15.09;80.57;96587.96;110232;1248;59714;-73
2022/06/21 03:26:39;;;;;;;7.60;6.90;;;;;;;15.13;81.67;96592.90;110165;1247;59736;-76
2022/06/21 03:29:09;;;;;;;8.90;7.00;;;;;;;15.19;80.97;96591.55;110152;1247;70016;-74
2022/06/21 03:31:42;;;;;;;7.70;6.50;;;;;;;15.26;79.69;96600.73;110204;1248;68096;-76
2022/06/21 03:34:17;;;;;;;8.50;7.70;;;;;;;15.35;80.83;96604.53;109885;1248;69343;-75
2022/06/21 03:36:49;;;;;;;10.20;7.20;;;;;;;15.42;80.27;96601.73;110141;1248;60123;-75
2022/06/21 03:41:42;;;;;;;9.00;7.60;;;;;;;15.47;78.22;96592.31;110197;1248;59676;-74
2022/06/21 03:42:18;;;;;;;8.30;7.10;;;;;;;15.51;77.69;96590.18;110185;1249;71503;-75
2022/06/21 03:44:57;;;;;;;7.30;6.60;;;;;;;15.52;77.75;96587.61;110248;1247;68567;-72
2022/06/21 03:47:53;;;;;;;7.90;6.80;;;;;;;15.53;77.83;96582.20;110157;1247;69421;-76
2022/06/21 03:50:33;;;;;;;7.30;6.00;;;;;;;15.60;77.76;96586.08;109917;1247;59792;-74
2022/06/21 03:53:17;;;;;;;9.10;6.90;;;;;;;15.67;77.92;96593.30;110154;1250;59699;-75
2022/06/21 03:56:05;;;;;;;7.20;6.30;;;;;;;15.74;77.98;96588.64;110183;1247;71502;-76
2022/06/21 03:58:34;;;;;;;6.70;6.00;;;;;;;15.84;78.25;96592.88;110185;1250;68523;-78
2022/06/21 04:01:14;;;;;;;6.70;6.00;;;;;;;15.94;78.14;96596.55;110138;1250;69450;-76
2022/06/21 04:03:54;;;;;;;7.30;6.00;;;;;;;16.06;78.04;96595.89;110181;1247;59763;-77
2022/06/21 04:06:29;;;;;;;7.80;6.70;;;;;;;16.20;77.70;96594.43;110198;1248;59695;-76
2022/06/21 04:09:16;;;;;;;8.10;6.40;;;;;;;16.31;77.23;96587.39;110210;1247;71527;-75
2022/06/21 04:11:49;;;;;;;8.70;6.40;;;;;;;16.44;76.52;96582.48;110389;1247;68568;-79
2022/06/21 04:14:32;;;;;;;9.70;7.00;;;;;;;16.56;76.41;96586.94;109936;1250;68654;-77
2022/06/21 04:17:22;;;;;;;9.00;6.50;;;;;;;16.69;76.03;96588.20;110136;1248;59610;-79
2022/06/21 04:19:55;;;;;;;7.60;6.10;;;;;;;16.85;75.44;96583.09;110132;1250;59739;-76
2022/06/21 04:22:51;;;;;;;7.30;6.60;;;;;;;16.99;76.06;96588.23;110153;1248;70798;-76
2022/06/21 04:25:37;;;;;;;10.50;7.20;;;;;;;17.11;76.44;96589.20;110011;1250;66722;-76
2022/06/21 04:28:29;;;;;;;7.10;6.30;;;;;;;17.21;76.21;96591.16;110169;1248;68501;-78
2022/06/21 04:31:04;;;;;;;7.90;6.50;;;;;;;17.37;75.65;96593.82;110195;1247;59688;-77
2022/06/21 04:33:43;;;;;;;7.20;6.50;;;;;;;17.52;74.87;96597.16;110189;1248;59689;-78
2022/06/21 04:36:32;;;;;;;;;;;;;;;17.67;74.72;96591.95;110235;1247;71562;-78
2022/06/21 04:39:09;;;;;;;8.60;6.20;;;;;;;17.84;73.46;96585.09;110148;1249;67681;-78
2022/06/21 04:41:44;;;;;;;8.60;7.20;;;;;;;18.00;72.86;96584.46;110146;1250;68713;-79
2022/06/21 04:44:43;;;;;;;7.90;5.90;;;;;;;18.12;71.81;96584.89;110154;1247;59680;-78
2022/06/21 04:47:33;;;;;;;8.90;6.50;;;;;;;18.27;71.68;96581.68;110209;1247;59679;-78
2022/06/21 04:50:02;;;;;;;6.60;5.90;;;;;;;18.44;71.08;96580.52;110192;1250;71553;-76
2022/06/21 04:52:36;;;;;;;;;;;;;;;18.59;70.41;96586.16;110281;1247;68441;-78
2022/06/21 04:55:14;;;;;;;7.10;5.80;;;;;;;18.75;70.26;96590.98;110200;1247;69607;-74
2022/06/21 04:57:46;;;;;;;6.50;5.50;;;;;;;18.92;70.34;96594.27;109968;1250;59699;-75
2022/06/21 05:00:19;;;;;;;7.70;6.20;;;;;;;19.08;69.21;96599.23;110249;1248;59700;-73
2022/06/21 05:03:00;;;;;;;7.00;5.90;;;;;;;19.24;68.44;96595.81;110182;1247;70581;-75
2022/06/21 05:05:34;;;;;;;6.00;5.10;;;;;;;19.46;67.39;96595.04;110131;1250;67759;-79
2022/06/21 05:08:12;;;;;;;7.10;5.50;;;;;;;19.76;67.57;96594.73;110158;1248;69392;-76
2022/06/21 05:10:46;;;;;;;7.70;6.80;;;;;;;20.15;66.72;96585.43;110125;1248;59676;-76
2022/06/21 05:13:40;;;;;;;6.90;6.00;;;;;;;20.53;65.74;96577.30;109800;1251;59739;-76
2022/06/21 05:16:27;;;;;;;6.40;5.30;;;;;;;21.14;65.25;96581.88;110142;1250;71535;-75
2022/06/21 05:18:57;;;;;;;6.60;5.10;;;;;;;21.77;63.33;96583.78;109960;1250;68721;-77
2022/06/21 05:21:36;;;;;;;6.50;5.10;;;;;;;22.30;63.34;96578.94;110125;1248;69290;-67
2022/06/21 05:24:06;;;;;;;8.70;6.60;;;;;;;22.76;59.94;96580.89;109999;1251;59710;-77
2022/06/21 05:26:45;;;;;;;5.90;5.30;;;;;;;22.92;57.98;96578.19;110197;1247;59745;-79
2022/06/21 05:29:34;;;;;;;6.70;5.20;;;;;;;23.09;58.09;96578.88;109995;1250;70834;-77
2022/06/21 05:32:11;;;;;;;6.00;5.30;;;;;;;23.22;56.68;96575.54;110001;1250;68393;-71
2022/06/21 05:34:44;;;;;;;5.80;5.30;;;;;;;23.27;56.40;96576.70;110137;1250;69245;-76
2022/06/21 05:37:19;;;;;;;6.50;5.90;;;;;;;23.29;56.48;96573.94;110222;1247;59777;-77
2022/06/21 05:39:50;;;;;;;6.70;6.00;;;;;;;23.19;55.52;96569.68;110088;1250;60111;-74
2022/06/21 05:42:23;;;;;;;8.10;5.70;;;;;;;23.04;55.34;96570.58;110189;1247;71715;-73
2022/06/21 05:44:59;;;;;;;10.30;6.10;;;;;;;23.00;55.88;96571.96;110261;1250;67845;-75
2022/06/21 05:47:37;;;;;;;8.10;6.90;;;;;;;22.95;55.01;96574.16;110202;1250;69441;-70
2022/06/21 05:50:11;;;;;;;8.20;5.70;;;;;;;22.87;54.06;96576.42;110190;1248;59818;-72
2022/06/21 05:56:37;;;;;;;8.20;6.20;;;;;;;22.74;54.11;96575.78;110155;1250;71551;-75
2022/06/21 06:00:08;;;;;;;7.20;6.00;;;;;;;22.81;53.99;96581.02;110140;1250;68707;-70
2022/06/21 06:02:48;;;;;;;8.30;6.40;;;;;;;22.91;53.94;96584.36;109878;1250;70133;-77
2022/06/21 06:05:26;;;;;;;8.00;6.20;;;;;;;22.93;53.84;96585.41;110140;1250;59776;-78
2022/06/21 06:08:01;;;;;;;7.00;6.30;;;;;;;23.09;53.43;96579.41;110198;1249;59753;-78
2022/06/21 06:10:32;;;;;;;7.30;6.60;;;;;;;23.31;53.21;96585.07;110160;1250;71903;-76
2022/06/21 06:13:32;;;;;;;7.90;6.90;;;;;;;23.45;52.42;96580.48;110149;1249;69194;-77
2022/06/21 06:16:32;;;;;;;6.20;5.60;;;;;;;23.60;52.15;96587.59;109406;1257;69255;-75
2022/06/21 06:19:18;;;;;;;6.40;5.80;;;;;;;23.75;52.18;96586.59;109403;1256;59742;-75
2022/06/21 06:22:14;;;;;;;7.20;6.50;;;;;;;23.99;51.13;96583.97;109427;1257;59789;-78
2022/06/21 06:25:01;;;;;;;6.00;5.30;;;;;;;24.15;50.41;96577.98;109422;1256;71666;-76
2022/06/21 06:28:01;;;;;;;6.10;5.60;;;;;;;24.29;50.00;96573.15;109429;1256;67822;-76
2022/06/21 06:30:58;;;;;;;5.90;5.30;;;;;;;24.49;50.29;96570.49;109387;1256;68829;-77
2022/06/21 06:33:45;;;;;;;7.60;5.70;;;;;;;24.94;49.65;96572.38;109456;1257;59738;-79
2022/06/21 06:36:20;;;;;;;7.10;6.50;;;;;;;25.17;47.43;96571.27;109452;1257;59769;-78
2022/06/21 06:38:49;;;;;;;6.30;5.70;;;;;;;25.39;47.28;96571.40;109457;1257;70850;-75
2022/06/21 06:41:31;;;;;;;6.70;5.80;;;;;;;25.77;46.43;96578.06;109389;1257;67787;-79
2022/06/21 06:44:05;;;;;;;6.50;5.90;;;;;;;26.01;45.41;96573.94;109386;1257;68741;-69
2022/06/21 06:46:39;;;;;;;6.80;6.10;;;;;;;26.13;45.91;96570.42;109515;1256;59780;-73
2022/06/21 06:49:21;;;;;;;6.80;5.40;;;;;;;26.42;45.74;96568.56;109395;1257;60010;-77
2022/06/21 06:52:02;;;;;;;7.70;5.80;;;;;;;26.78;44.23;96562.60;109459;1251;71517;-78
2022/06/21 06:54:49;;;;;;;7.00;6.00;;;;;;;27.28;43.66;96567.70;110114;1250;68590;-77
2022/06/21 06:57:37;;;;;;;6.20;5.20;;;;;;;27.29;42.97;96565.41;109913;1250;69829;-78
2022/06/21 07:00:33;;;;;;;9.60;6.00;;;;;;;27.59;43.14;96569.06;110044;1250;59751;-77
2022/06/21 07:03:17;;;;;;;6.10;5.50;;;;;;;27.93;42.39;96575.89;109945;1251;59710;-77
2022/06/21 07:06:05;;;;;;;6.60;6.00;;;;;;;27.88;42.33;96574.98;109913;1251;70793;-78
2022/06/21 07:08:44;;;;;;;5.90;5.40;;;;;;;27.71;42.68;96577.57;109774;1251;67680;-78
2022/06/21 07:11:29;;;;;;;;;;;;;;;27.62;42.44;96581.46;110001;1250;69500;-76
2022/06/21 07:14:00;;;;;;;6.20;5.60;;;;;;;27.09;43.09;96578.08;109892;1250;59736;-76
2022/06/21 07:16:34;;;;;;;6.50;5.90;;;;;;;27.09;42.23;96573.89;109942;1251;59765;-79
2022/06/21 07:19:04;;;;;;;6.30;5.70;;;;;;;26.91;42.67;96575.98;109918;1251;71632;-70
2022/06/21 07:21:34;;;;;;;6.50;5.90;;;;;;;27.32;42.11;96576.33;109877;1251;66853;-74
2022/06/21 07:24:08;;;;;;;6.20;5.40;;;;;;;27.56;42.06;96572.64;109976;1251;69384;-79
2022/06/21 07:26:44;;;;;;;6.40;5.80;;;;;;;27.70;41.79;96576.02;109465;1251;703138;-75
2022/06/21 07:29:45;;;;;;;6.20;5.60;;;;;;;27.85;41.48;96573.80;110070;1250;59669;-73
2022/06/21 07:32:19;;;;;;;7.20;6.50;;;;;;;28.34;39.73;96570.45;109617;1251;71660;-79
2022/06/21 07:34:59;;;;;;;6.80;6.20;;;;;;;27.71;39.64;96574.89;109866;1251;67798;-75
2022/06/21 07:37:39;;;;;;;;;;;;;;;26.68;41.63;96576.04;109999;1250;69460;-78
2022/06/21 07:40:33;;;;;;;8.00;6.70;;;;;;;26.43;43.00;96583.13;109953;1251;59689;-75
2022/06/21 07:43:12;;;;;;;8.10;7.30;;;;;;;26.30;43.11;96580.48;109958;1251;59745;-78
2022/06/21 07:45:51;;;;;;;6.20;5.60;;;;;;;26.43;43.81;96576.63;109992;1250;70791;-73
2022/06/21 07:48:40;;;;;;;7.80;7.00;;;;;;;26.48;43.92;96566.52;109847;1250;68845;-77
2022/06/21 07:51:36;;;;;;;7.50;6.80;;;;;;;26.32;44.57;96577.27;110043;1249;69553;-78
2022/06/21 07:54:25;;;;;;;9.30;7.90;;;;;;;26.28;45.00;96578.08;110095;1251;59764;-78
2022/06/21 07:57:05;;;;;;;7.40;6.30;;;;;;;26.55;44.54;96572.31;110032;1249;59682;-78
2022/06/21 07:59:43;;;;;;;7.30;5.80;;;;;;;26.34;45.27;96578.22;110033;1249;71503;-78
2022/06/21 08:08:06;;;;;;;6.50;5.90;;;;;;;26.33;45.68;96577.46;110055;1250;59708;-70
2022/06/21 08:10:43;;;;;;;5.10;4.60;;;;;;;26.71;45.50;96575.45;109957;1251;59625;-77
2022/06/21 08:13:13;;;;;;;6.80;6.10;;;;;;;27.47;44.45;96572.30;110062;1250;72169;-78
2022/06/21 08:15:50;;;;;;;8.30;6.10;;;;;;;27.85;42.99;96578.80;109943;1251;67857;-78
2022/06/21 08:18:39;;;;;;;6.60;5.50;;;;;;;27.69;42.41;96588.72;109937;1251;69442;-73
2022/06/21 08:21:14;;;;;;;5.90;5.20;;;;;;;27.29;42.61;96583.06;109916;1251;59694;-77
2022/06/21 08:24:26;;;;;;;5.80;5.30;;;;;;;27.37;42.24;96580.21;110138;1251;59639;-80
2022/06/21 08:27:16;;;;;;;6.30;5.70;;;;;;;27.46;41.86;96582.71;109941;1251;71154;-78
2022/06/21 08:30:10;;;;;;;6.70;5.50;;;;;;;27.88;42.54;96584.80;109924;1250;68717;-77
2022/06/21 08:32:49;;;;;;;6.90;6.20;;;;;;;28.24;41.08;96595.16;109840;1251;68641;-77
2022/06/21 08:35:27;;;;;;;6.50;5.90;;;;;;;27.91;41.19;96594.80;110136;1250;59692;-80
2022/06/21 08:37:58;;;;;;;6.30;5.60;;;;;;;28.01;41.78;96594.98;109734;1250;59690;-79
2022/06/21 08:40:50;;;;;;;5.90;5.30;;;;;;;28.43;41.68;96586.67;110181;1250;72292;-79
2022/06/21 08:43:34;;;;;;;5.90;5.30;;;;;;;28.09;41.33;96589.63;109866;1247;68982;-78
2022/06/21 08:46:22;;;;;;;5.70;5.10;;;;;;;28.23;40.69;96597.52;110191;1248;68584;-79
2022/06/21 08:49:31;;;;;;;6.40;5.80;;;;;;;27.61;42.17;96598.39;110200;1248;59666;-80
2022/06/21 08:52:31;;;;;;;5.10;4.60;;;;;;;27.88;41.77;96588.20;110061;1247;59632;-79
2022/06/21 08:55:22;;;;;;;7.30;5.30;;;;;;;28.70;40.89;96579.72;109964;1250;70829;-81
2022/06/21 08:58:10;;;;;;;6.40;5.90;;;;;;;28.99;39.50;96580.09;110155;1248;67273;-79
2022/06/21 09:01:01;;;;;;;5.20;4.60;;;;;;;28.91;39.64;96579.66;110134;1250;68755;-81
2022/06/21 09:03:45;;;;;;;5.20;4.70;;;;;;;29.18;39.22;96579.44;110186;1250;59776;-80
2022/06/21 09:06:38;;;;;;;5.70;5.00;;;;;;;29.39;38.44;96576.05;110120;1250;59724;-74
2022/06/21 09:09:23;;;;;;;4.80;4.30;;;;;;;29.75;38.30;96576.05;110216;1247;71571;-75
2022/06/21 09:12:06;;;;;;;6.20;5.20;;;;;;;29.93;36.51;96574.83;110184;1248;67797;-80
2022/06/21 09:15:08;;;;;;;5.90;5.00;;;;;;;30.26;36.20;96569.81;110200;1248;68617;-76
2022/06/21 09:18:01;;;;;;;6.80;5.40;;;;;;;30.51;36.42;96573.73;110098;1248;59750;-79
2022/06/21 09:20:53;;;;;;;7.00;5.30;;;;;;;30.19;37.02;96576.08;110151;1248;59765;-80
2022/06/21 09:23:42;;;;;;;6.50;5.50;;;;;;;29.61;38.41;96570.60;109928;1250;72155;-77
2022/06/21 09:26:23;;;;;;;8.10;5.80;;;;;;;29.61;38.77;96575.67;110179;1247;68708;-73
2022/06/21 09:28:59;;;;;;;4.90;4.40;;;;;;;29.62;37.96;96563.42;110181;1247;68437;-77
2022/06/21 09:31:48;;;;;;;4.90;3.70;;;;;;;30.34;35.13;96553.92;110198;1250;59762;-72
2022/06/21 09:34:26;;;;;;;4.30;3.80;;;;;;;30.10;34.08;96562.58;110177;1248;59701;-81
2022/06/21 09:37:01;;;;;;;4.60;4.00;;;;;;;30.29;34.68;96555.31;110200;1247;72010;-69
2022/06/21 09:40:01;;;;;;;5.00;4.10;;;;;;;30.82;32.95;96557.98;110195;1247;68881;-80
2022/06/21 09:42:57;;;;;;;4.90;3.50;;;;;;;30.75;32.58;96555.02;110157;1250;68663;-73
2022/06/21 09:45:33;;;;;;;4.30;3.80;;;;;;;31.46;31.92;96552.69;110003;1248;59716;-77
2022/06/21 09:48:08;;;;;;;4.70;3.50;;;;;;;31.90;30.58;96555.52;110173;1247;59678;-72
2022/06/21 09:51:00;;;;;;;6.10;3.70;;;;;;;32.23;30.02;96550.53;110179;1248;71375;-72
2022/06/21 09:54:03;;;;;;;5.00;3.60;;;;;;;32.48;29.50;96547.52;110230;1247;68809;-80
2022/06/21 09:56:59;;;;;;;4.60;4.10;;;;;;;32.63;29.18;96546.14;110207;1247;69441;-80
2022/06/21 09:59:41;;;;;;;3.80;3.30;;;;;;;32.07;30.01;96542.27;110165;1250;59715;-74
2022/06/21 10:02:25;;;;;;;5.00;3.80;;;;;;;31.92;30.06;96542.45;110220;1249;59713;-71
2022/06/21 10:04:59;;;;;;;5.60;4.10;;;;;;;32.11;29.62;96535.48;110164;1247;70740;-75
2022/06/21 10:07:51;;;;;;;4.30;3.20;;;;;;;31.90;30.19;96530.83;110217;1248;68344;-71
2022/06/21 10:10:45;;;;;;;4.40;3.40;;;;;;;32.21;30.05;96522.52;110129;1250;69412;-79
2022/06/21 10:13:24;;;;;;;5.30;3.40;;;;;;;31.94;28.23;96513.74;110210;1247;59692;-73
2022/06/21 10:16:39;;;;;;;4.50;3.40;;;;;;;32.01;28.43;96512.89;110157;1250;59614;-76
2022/06/21 10:19:36;;;;;;;5.00;3.40;;;;;;;31.81;28.46;96513.79;109820;1250;72678;-77
2022/06/21 10:22:26;;;;;;;3.80;3.10;;;;;;;31.90;29.21;96510.77;110136;1248;67815;-75
2022/06/21 10:25:01;;;;;;;6.30;3.40;;;;;;;32.12;28.98;96513.27;110165;1248;69397;-73
2022/06/21 10:27:54;;;;;;;5.50;3.30;;;;;;;31.10;29.43;96514.51;110153;1248;59640;-77
2022/06/21 10:30:39;;;;;;;5.70;3.60;;;;;;;30.94;30.24;96510.73;110209;1248;59691;-78
2022/06/21 10:33:46;;;;;;;6.20;3.70;;;;;;;31.11;29.61;96515.01;110192;1248;69784;-79
2022/06/21 10:36:40;;;;;;;4.20;3.00;;;;;;;30.67;29.43;96519.42;109960;1250;68667;-76
2022/06/21 10:39:24;;;;;;;4.60;2.70;;;;;;;30.61;29.57;96532.65;110182;1247;69404;-77
2022/06/21 10:45:09;;;;;;;3.20;2.70;;;;;;;30.91;28.87;96534.08;110186;1249;59714;-76
2022/06/21 10:48:09;;;;;;;6.20;2.80;;;;;;;31.01;28.60;96539.27;110171;1247;71571;-66
2022/06/21 10:50:41;;;;;;;4.60;2.80;;;;;;;31.20;29.13;96535.41;110143;1247;68660;-76
2022/06/21 10:53:12;;;;;;;3.70;2.90;;;;;;;31.26;28.70;96544.13;110148;1248;68610;-77
2022/06/21 10:59:10;;;;;;;4.30;3.00;;;;;;;30.93;28.75;96537.34;110131;1248;59794;-71
2022/06/21 11:01:55;;;;;;;3.90;3.30;;;;;;;31.14;28.56;96542.61;110140;1250;71572;-78
2022/06/21 11:04:39;;;;;;;4.40;3.70;;;;;;;31.27;28.32;96539.66;110219;1250;67132;-77
2022/06/21 11:07:33;;;;;;;4.20;3.00;;;;;;;31.31;27.82;96539.04;110201;1250;69512;-78
2022/06/21 11:10:11;;;;;;;3.60;2.60;;;;;;;31.37;27.26;96538.03;110186;1250;59745;-78
2022/06/21 11:12:56;;;;;;;4.70;2.60;;;;;;;31.66;27.22;96542.48;110197;1250;59734;-78
2022/06/21 11:15:28;;;;;;;4.60;2.60;;;;;;;31.72;26.13;96538.89;109952;1250;71039;-75
2022/06/21 11:18:15;;;;;;;4.70;3.00;;;;;;;31.77;26.53;96546.13;110156;1250;68015;-73
2022/06/21 11:21:02;;;;;;;4.80;3.10;;;;;;;31.79;26.44;96544.04;109849;1251;69598;-74
2022/06/21 11:24:00;;;;;;;5.80;3.10;;;;;;;31.36;26.66;96537.77;110107;1247;59701;-72
2022/06/21 11:26:41;;;;;;;4.90;3.10;;;;;;;31.26;26.73;96545.09;110124;1247;59640;-75
2022/06/21 11:29:41;;;;;;;5.40;3.00;;;;;;;31.23;26.96;96545.14;110234;1247;71008;-79
2022/06/21 11:32:34;;;;;;;2.90;2.60;;;;;;;31.21;27.27;96540.27;110168;1247;67779;-69
2022/06/21 11:35:22;;;;;;;6.00;3.00;;;;;;;31.47;26.89;96529.05;109946;1251;70062;-73
2022/06/21 11:38:16;;;;;;;3.90;2.80;;;;;;;31.69;26.52;96535.24;110135;1250;59767;-66
2022/06/21 11:42:04;;;;;;;4.40;2.70;;;;;;;31.95;27.07;96530.66;109932;1251;59742;-76
2022/06/21 11:44:25;;;;;;;4.30;2.90;;;;;;;32.10;25.96;96520.56;110191;1250;70804;-78
2022/06/21 11:47:06;;;;;;;4.50;2.60;;;;;;;31.89;26.21;96531.58;110148;1250;68614;-75
2022/06/21 11:49:39;;;;;;;6.50;3.10;;;;;;;31.98;26.88;96527.74;109985;1251;69558;-73
2022/06/21 11:52:38;;;;;;;3.90;2.70;;;;;;;31.51;25.18;96526.77;110139;1249;59683;-76
2022/06/21 11:55:29;;;;;;;4.80;2.70;;;;;;;31.84;24.58;96529.46;110080;1250;59718;-67
2022/06/21 11:58:04;;;;;;;5.30;2.90;;;;;;;31.94;25.37;96519.59;110005;1251;71558;-76
2022/06/21 12:01:03;;;;;;;4.10;2.70;;;;;;;32.09;25.45;96521.39;110145;1250;68570;-75
2022/06/21 12:03:38;;;;;;;2.90;2.20;;;;;;;32.24;24.90;96527.38;110006;1250;68802;-76
2022/06/21 12:06:30;;;;;;;4.40;3.10;;;;;;;31.51;23.51;96533.08;109917;1250;59725;-73
2022/06/21 12:09:21;;;;;;;5.60;2.60;;;;;;;31.64;23.89;96539.77;110156;1250;59685;-71
2022/06/21 12:12:19;;;;;;;4.00;2.10;;;;;;;31.81;22.12;96535.23;110151;1250;71400;-78
2022/06/21 12:15:07;;;;;;;3.00;1.70;;;;;;;31.98;21.90;96540.95;110050;1250;68820;-73
2022/06/21 12:17:57;;;;;;;2.60;1.70;;;;;;;31.69;19.51;96546.13;110142;1250;69443;-75
2022/06/21 12:20:35;;;;;;;3.50;1.30;;;;;;;31.98;20.66;96548.55;110149;1248;59769;-74
2022/06/21 12:23:16;;;;;;;5.30;1.60;;;;;;;31.73;17.43;96547.46;109978;1250;59676;-74
2022/06/21 12:25:46;;;;;;;3.10;1.40;;;;;;;31.49;17.81;96554.00;110124;1250;71537;-74
2022/06/21 12:28:20;;;;;;;2.60;1.40;;;;;;;31.42;17.71;96546.57;109867;1250;68593;-74
2022/06/21 12:31:22;;;;;;;2.90;1.60;;;;;;;31.37;17.89;96545.75;109927;1250;69315;-77
2022/06/21 12:34:05;;;;;;;2.40;1.10;;;;;;;30.79;15.84;96546.04;109801;1250;59833;-73
2022/06/21 12:36:45;;;;;;;1.40;1.00;;;;;;;30.21;15.85;96550.36;109830;1251;59770;-76
2022/06/21 12:39:39;;;;;;;1.60;1.30;;;;;;;30.40;16.62;96545.77;110108;1248;71001;-76
2022/06/21 12:42:08;;;;;;;3.70;1.10;;;;;;;30.54;16.25;96546.73;110142;1250;69143;-72
2022/06/21 12:44:52;;;;;;;;;;;;;;;30.63;15.41;96545.49;110139;1249;68438;-74
2022/06/21 12:47:46;;;;;;;2.00;0.90;;;;;;;30.59;14.86;96541.48;109846;1250;59699;-71
2022/06/21 12:50:50;;;;;;;2.70;1.30;;;;;;;30.64;15.29;96545.51;109971;1251;59744;-70
2022/06/21 12:53:30;;;;;;;2.40;1.20;;;;;;;30.64;15.61;96547.02;109976;1250;70818;-76
2022/06/21 12:56:09;;;;;;;1.50;1.20;;;;;;;30.68;16.35;96547.86;110066;1250;67780;-78
2022/06/21 12:58:59;;;;;;;1.50;0.90;;;;;;;30.31;15.49;96557.04;110125;1248;69015;-78
2022/06/21 13:01:56;;;;;;;2.20;0.90;;;;;;;30.23;15.57;96548.00;110092;1250;59712;-78